Track Цыденов Александр

Time Latitude Longitude Accuracy (66% radius in meters) Altitude (meters) Speed (km/hour) Bearing (degrees) Battery (%) GPS flag
04:23:33 51.897601 107.663264 7.585000038147 656 1.1100000143051 49.400001525879 35 1 delete
04:23:28 51.897578 107.663214 9.1019992828369 654 0.61000001430511 46.5 35 1 delete
04:23:22 51.897549 107.663134 7.585000038147 653 0.30000001192093 34.700000762939 35 1 delete
04:23:18 51.897518 107.663087 7.585000038147 654 0.98000001907349 34.5 35 1 delete
04:23:09 51.897480 107.663025 7.585000038147 653 0.63999998569489 49.099998474121 35 1 delete
04:23:07 51.897464 107.663008 7.585000038147 653 1.1399999856949 39.299999237061 35 1 delete
04:22:59 51.897400 107.662943 6.0679998397827 654 1.1399999856949 40.400001525879 35 1 delete
04:22:57 51.897379 107.662912 6.0679998397827 656 0.99000000953674 40.5 35 1 delete
04:22:47 51.897329 107.662864 6.0679998397827 657 0 0 35 1 delete
04:22:46 51.897325 107.662856 6.0679998397827 656 0 0 35 1 delete
04:22:38 51.897247 107.662770 6.0679998397827 657 0.87999999523163 37.5 38 1 delete
04:22:36 51.897235 107.662773 6.0679998397827 656 0 0 38 1 delete
04:22:26 51.897192 107.662771 4.5509996414185 654 0 0 38 1 delete
04:22:20 51.897154 107.662760 4.5509996414185 653 0 0 38 1 delete
04:22:16 51.897127 107.662765 6.0679998397827 651 0 0 38 1 delete
04:22:05 51.897100 107.662749 6.0679998397827 650 0 0 38 1 delete
04:22:00 51.897063 107.662775 6.0679998397827 649 0.76999998092651 344.10000610352 38 1 delete
04:21:55 51.896999 107.662766 4.5509996414185 647 0 0 38 1 delete
04:21:47 51.896969 107.662758 6.0679998397827 649 0 0 38 1 delete
04:21:45 51.896945 107.662733 6.0679998397827 648 0 0 38 1 delete
04:21:34 51.896907 107.662729 4.5509996414185 649 0 0 38 1 delete
04:21:29 51.896874 107.662724 6.0679998397827 649 0.61000001430511 1.7000000476837 38 1 delete
04:21:23 51.896850 107.662705 6.0679998397827 650 0.8299999833107 354.89999389648 38 1 delete
04:21:14 51.896779 107.662720 6.0679998397827 650 0.66000002622604 354.70001220703 38 1 delete
04:21:12 51.896765 107.662720 6.0679998397827 650 0.75 359.70001220703 38 1 delete
04:21:02 51.896693 107.662731 4.5509996414185 649 0.72000002861023 19.5 38 1 delete
04:21:01 51.896687 107.662730 6.0679998397827 650 0.88999998569489 20.39999961853 38 1 delete
04:20:51 51.896640 107.662710 6.0679998397827 648 0 0 38 1 delete
04:20:41 51.896615 107.662719 4.5509996414185 647 0 0 38 1 delete
04:20:31 51.896540 107.662705 6.0679998397827 649 0 0 38 1 delete
04:20:20 51.896522 107.662680 6.0679998397827 648 0 0 38 1 delete
04:20:09 51.896522 107.662679 4.5509996414185 648 0 0 38 1 delete
04:19:59 51.896521 107.662681 4.5509996414185 648 0 0 38 1 delete
04:19:49 51.896521 107.662681 4.5509996414185 648 0 0 38 1 delete
04:19:38 51.896525 107.662691 6.0679998397827 649 0 0 38 1 delete
04:19:28 51.896576 107.662694 6.0679998397827 648 0.77999997138977 179.60000610352 38 1 delete
04:19:25 51.896597 107.662713 6.0679998397827 648 0.66000002622604 202.60000610352 38 1 delete
04:19:18 51.896640 107.662737 4.5509996414185 651 1.1699999570847 180.10000610352 38 1 delete
04:19:13 51.896687 107.662755 4.5509996414185 651 1.6200000047684 181.69999694824 38 1 delete
04:19:07 51.896757 107.662775 4.5509996414185 651 1.3099999427795 176.30000305176 38 1 delete
04:19:04 51.896782 107.662760 6.0679998397827 651 0 0 38 1 delete
04:18:57 51.896834 107.662715 4.5509996414185 647 0.66000002622604 189 38 1 delete
04:18:53 51.896870 107.662709 4.5509996414185 646 1.4800000190735 188.60000610352 38 1 delete
04:18:47 51.896942 107.662713 4.5509996414185 646 1.3500000238419 194.19999694824 38 1 delete
04:18:45 51.896966 107.662714 4.5509996414185 646 2.0999999046326 182.39999389648 38 1 delete
04:18:36 51.897026 107.662752 6.0679998397827 649 0.77999997138977 158.39999389648 38 1 delete
04:18:33 51.897060 107.662724 6.0679998397827 649 1.6599999666214 165.39999389648 38 1 delete
04:18:26 51.897144 107.662706 7.585000038147 647 0.8299999833107 161.89999389648 38 1 delete
04:18:25 51.897157 107.662704 9.1019992828369 648 1.8300000429153 161.80000305176 38 1 delete
04:18:16 51.897258 107.662671 6.0679998397827 649 1.25 170.89999389648 38 1 delete